Time;durP1;ratioP1;P1;durP2;ratioP2;P2;SDS_P1;SDS_P2;PMS_P1;PMS_P2;Temp;Humidity;BMP_temperature;BMP_pressure;BME280_temperature;BME280_humidity;BME280_pressure;Samples;Min_cycle;Max_cycle;Signal;HPM_P1;HPM_P2
2023/07/02 00:02:16;;;;;;;0.80;0.80;;;;;;;;;;5048738;28;20979;-76
2023/07/02 00:04:43;;;;;;;1.03;1.00;;;;;;;;;;5049162;28;20793;-75
2023/07/02 00:07:10;;;;;;;0.70;0.70;;;;;;;;;;5044632;28;20474;-74
2023/07/02 00:09:39;;;;;;;0.70;0.70;;;;;;;;;;5031441;28;20451;-76
2023/07/02 00:12:06;;;;;;;0.70;0.70;;;;;;;;;;5040836;28;20466;-75
2023/07/02 00:14:33;;;;;;;0.83;0.83;;;;;;;;;;5047490;28;20560;-75
2023/07/02 00:16:59;;;;;;;0.70;0.70;;;;;;;;;;5041652;28;20443;-76
2023/07/02 00:19:26;;;;;;;0.80;0.80;;;;;;;;;;5030397;28;20541;-76
2023/07/02 00:21:53;;;;;;;0.80;0.80;;;;;;;;;;5044796;28;20458;-74
2023/07/02 00:24:20;;;;;;;0.70;0.70;;;;;;;;;;5043141;28;20439;-76
2023/07/02 00:26:48;;;;;;;2.97;2.77;;;;;;;;;;5044585;28;20488;-74
2023/07/02 00:29:15;;;;;;;0.80;0.80;;;;;;;;;;5040498;28;20469;-75
2023/07/02 00:31:42;;;;;;;0.70;0.70;;;;;;;;;;5019676;28;20506;-75
2023/07/02 00:34:09;;;;;;;1.00;0.97;;;;;;;;;;5047828;28;20849;-75
2023/07/02 00:36:36;;;;;;;0.80;0.80;;;;;;;;;;5043474;28;20440;-74
2023/07/02 00:39:03;;;;;;;0.80;0.80;;;;;;;;;;5026464;28;20856;-76
2023/07/02 00:41:30;;;;;;;0.70;0.70;;;;;;;;;;5024474;28;20458;-74
2023/07/02 00:43:58;;;;;;;0.80;0.80;;;;;;;;;;5025990;28;20463;-76
2023/07/02 00:46:25;;;;;;;1.10;1.03;;;;;;;;;;5044495;28;20922;-76
2023/07/02 00:48:53;;;;;;;1.07;1.07;;;;;;;;;;5028222;28;20466;-75
2023/07/02 00:51:20;;;;;;;0.70;0.70;;;;;;;;;;5042541;28;20506;-76
2023/07/02 00:53:48;;;;;;;0.80;0.80;;;;;;;;;;5029851;28;20472;-76
2023/07/02 00:56:15;;;;;;;1.00;0.97;;;;;;;;;;5034862;28;20469;-76
2023/07/02 00:58:48;;;;;;;0.70;0.70;;;;;;;;;;5047795;28;20446;-75
2023/07/02 01:01:16;;;;;;;0.70;0.70;;;;;;;;;;5047189;28;20445;-76
2023/07/02 01:03:52;;;;;;;0.80;0.80;;;;;;;;;;5037755;28;20780;-76
2023/07/02 01:06:24;;;;;;;0.90;0.90;;;;;;;;;;5047317;28;20459;-76
2023/07/02 01:08:54;;;;;;;0.80;0.80;;;;;;;;;;5026178;28;20473;-75
2023/07/02 01:11:22;;;;;;;0.80;0.73;;;;;;;;;;5041208;28;20548;-76
2023/07/02 01:13:51;;;;;;;0.70;0.70;;;;;;;;;;5040605;28;20843;-76
2023/07/02 01:16:19;;;;;;;0.70;0.70;;;;;;;;;;5048152;28;20440;-75
2023/07/02 01:18:46;;;;;;;1.00;0.90;;;;;;;;;;5044837;28;20794;-78
2023/07/02 01:21:14;;;;;;;0.90;0.90;;;;;;;;;;5040188;28;20962;-76
2023/07/02 01:23:45;;;;;;;0.73;0.70;;;;;;;;;;5041314;28;20467;-76
2023/07/02 01:26:12;;;;;;;0.70;0.60;;;;;;;;;;5041978;28;20456;-76
2023/07/02 01:28:41;;;;;;;0.80;0.73;;;;;;;;;;5040993;28;20579;-77
2023/07/02 01:31:08;;;;;;;0.80;0.80;;;;;;;;;;5030634;28;20476;-77
2023/07/02 01:33:36;;;;;;;0.70;0.70;;;;;;;;;;5036538;28;20448;-76
2023/07/02 01:36:03;;;;;;;0.80;0.80;;;;;;;;;;5041551;28;20880;-75
2023/07/02 01:38:32;;;;;;;0.70;0.67;;;;;;;;;;5049582;28;20488;-75
2023/07/02 01:40:58;;;;;;;0.80;0.80;;;;;;;;;;5042780;28;20462;-76
2023/07/02 01:43:25;;;;;;;0.70;0.70;;;;;;;;;;5026755;28;20909;-75
2023/07/02 01:45:52;;;;;;;0.80;0.80;;;;;;;;;;5045824;28;20514;-76
2023/07/02 01:48:19;;;;;;;0.73;0.70;;;;;;;;;;5045427;28;20446;-76
2023/07/02 01:50:47;;;;;;;0.70;0.70;;;;;;;;;;5041301;28;20873;-74
2023/07/02 01:53:14;;;;;;;0.70;0.70;;;;;;;;;;5042586;28;20447;-77
2023/07/02 01:55:42;;;;;;;0.70;0.70;;;;;;;;;;5024470;28;20535;-76
2023/07/02 01:58:09;;;;;;;0.77;0.77;;;;;;;;;;5047352;28;20972;-76
2023/07/02 02:00:36;;;;;;;0.70;0.70;;;;;;;;;;5027464;28;20520;-74
2023/07/02 02:03:04;;;;;;;0.70;0.70;;;;;;;;;;5021761;28;20461;-76
2023/07/02 02:05:31;;;;;;;0.80;0.80;;;;;;;;;;5047585;28;20428;-75
2023/07/02 02:08:01;;;;;;;0.90;0.90;;;;;;;;;;5031248;28;20558;-77
2023/07/02 02:10:29;;;;;;;1.20;1.10;;;;;;;;;;5038563;28;20475;-77
2023/07/02 02:12:56;;;;;;;0.70;0.70;;;;;;;;;;5040201;28;20483;-76
2023/07/02 02:15:24;;;;;;;0.87;0.87;;;;;;;;;;5035786;28;20570;-73
2023/07/02 02:17:51;;;;;;;0.70;0.70;;;;;;;;;;5045319;28;20459;-76
2023/07/02 02:20:19;;;;;;;2.27;1.17;;;;;;;;;;5043398;28;20434;-76
2023/07/02 02:22:45;;;;;;;0.80;0.70;;;;;;;;;;5027485;28;21084;-75
2023/07/02 02:25:12;;;;;;;0.80;0.70;;;;;;;;;;5029669;28;20472;-76
2023/07/02 02:27:43;;;;;;;0.73;0.73;;;;;;;;;;5050662;28;20497;-76
2023/07/02 02:30:12;;;;;;;0.70;0.70;;;;;;;;;;5050333;28;20453;-74
2023/07/02 02:32:39;;;;;;;0.70;0.70;;;;;;;;;;5043131;28;20454;-76
2023/07/02 02:35:09;;;;;;;1.63;0.97;;;;;;;;;;5048103;28;20471;-76
2023/07/02 02:37:38;;;;;;;0.70;0.70;;;;;;;;;;5051223;28;20987;-75
2023/07/02 02:40:06;;;;;;;0.70;0.70;;;;;;;;;;5044468;28;20485;-76
2023/07/02 02:42:33;;;;;;;2.90;2.80;;;;;;;;;;5050020;28;20452;-75
2023/07/02 02:45:00;;;;;;;1.47;1.37;;;;;;;;;;5024968;28;20525;-77
2023/07/02 02:47:28;;;;;;;1.73;1.63;;;;;;;;;;5034236;28;20436;-76
2023/07/02 02:49:55;;;;;;;0.70;0.60;;;;;;;;;;5034667;28;20480;-76
2023/07/02 02:52:22;;;;;;;1.13;1.10;;;;;;;;;;5041977;28;20472;-75
2023/07/02 02:54:50;;;;;;;1.17;1.07;;;;;;;;;;5033331;28;20509;-75
2023/07/02 02:57:16;;;;;;;0.83;0.83;;;;;;;;;;5032471;28;20447;-75
2023/07/02 02:59:43;;;;;;;0.80;0.70;;;;;;;;;;5045495;28;20462;-75
2023/07/02 03:02:10;;;;;;;0.70;0.70;;;;;;;;;;5034065;28;20459;-75
2023/07/02 03:04:39;;;;;;;0.80;0.80;;;;;;;;;;5027637;28;20583;-77
2023/07/02 03:07:07;;;;;;;1.57;1.47;;;;;;;;;;5023862;28;20486;-76
2023/07/02 03:09:35;;;;;;;0.70;0.70;;;;;;;;;;5052065;28;20468;-76
2023/07/02 03:12:04;;;;;;;0.80;0.70;;;;;;;;;;5046622;28;20474;-76
2023/07/02 03:14:30;;;;;;;0.73;0.70;;;;;;;;;;5032689;28;20542;-75
2023/07/02 03:16:58;;;;;;;0.70;0.70;;;;;;;;;;5025694;28;21018;-76
2023/07/02 03:19:27;;;;;;;2.40;1.23;;;;;;;;;;5049175;28;20529;-76
2023/07/02 03:21:55;;;;;;;1.77;1.67;;;;;;;;;;5042184;28;20460;-74
2023/07/02 03:24:21;;;;;;;1.27;1.13;;;;;;;;;;5030700;28;20460;-77
2023/07/02 03:26:48;;;;;;;0.80;0.80;;;;;;;;;;5026965;28;20459;-75
2023/07/02 03:29:15;;;;;;;1.27;1.17;;;;;;;;;;5043996;28;20432;-73
2023/07/02 03:31:43;;;;;;;1.47;1.37;;;;;;;;;;5041485;28;20444;-74
2023/07/02 03:34:10;;;;;;;0.70;0.60;;;;;;;;;;5043326;28;20581;-74
2023/07/02 03:36:37;;;;;;;0.73;0.73;;;;;;;;;;5043484;28;20503;-76
2023/07/02 03:39:05;;;;;;;0.80;0.80;;;;;;;;;;5027721;28;20458;-76
2023/07/02 03:41:36;;;;;;;1.57;1.47;;;;;;;;;;5026717;28;20960;-75
2023/07/02 03:44:03;;;;;;;0.73;0.73;;;;;;;;;;5049707;28;20953;-73
2023/07/02 03:46:31;;;;;;;1.00;1.00;;;;;;;;;;5047116;28;20517;-75
2023/07/02 03:48:57;;;;;;;0.80;0.80;;;;;;;;;;5029041;28;20499;-75
2023/07/02 03:51:25;;;;;;;0.80;0.77;;;;;;;;;;5045538;28;20461;-75
2023/07/02 03:53:51;;;;;;;0.90;0.90;;;;;;;;;;5048222;28;21014;-75
2023/07/02 03:56:19;;;;;;;1.33;1.23;;;;;;;;;;5045317;28;20479;-75
2023/07/02 03:58:46;;;;;;;0.70;0.70;;;;;;;;;;5048060;28;20974;-76
2023/07/02 04:01:13;;;;;;;0.70;0.70;;;;;;;;;;5045611;28;20441;-76
2023/07/02 04:03:47;;;;;;;1.20;1.10;;;;;;;;;;5036127;28;20443;-75
2023/07/02 04:06:14;;;;;;;0.80;0.80;;;;;;;;;;5022801;28;20472;-76
2023/07/02 04:08:41;;;;;;;0.70;0.70;;;;;;;;;;5039617;28;20499;-77
2023/07/02 04:11:07;;;;;;;1.70;1.60;;;;;;;;;;5030016;28;20477;-75
2023/07/02 04:13:36;;;;;;;0.70;0.70;;;;;;;;;;5023731;28;20451;-75
2023/07/02 04:16:03;;;;;;;1.83;1.23;;;;;;;;;;5029721;28;20504;-76
2023/07/02 04:18:29;;;;;;;0.87;0.87;;;;;;;;;;5044794;28;20466;-75
2023/07/02 04:20:58;;;;;;;1.63;1.53;;;;;;;;;;5039439;28;20487;-76
2023/07/02 04:23:24;;;;;;;0.80;0.80;;;;;;;;;;5031949;28;20519;-75
2023/07/02 04:25:52;;;;;;;0.70;0.70;;;;;;;;;;5029949;28;20459;-75
2023/07/02 04:28:40;;;;;;;0.80;0.80;;;;;;;;;;5044028;28;20523;-75
2023/07/02 04:31:06;;;;;;;1.33;1.27;;;;;;;;;;5040693;28;20485;-76
2023/07/02 04:33:35;;;;;;;1.60;1.50;;;;;;;;;;5029077;28;20463;-76
2023/07/02 04:36:02;;;;;;;1.73;1.63;;;;;;;;;;5044827;28;20468;-76
2023/07/02 04:38:29;;;;;;;0.80;0.70;;;;;;;;;;5048512;28;20553;-76
2023/07/02 04:41:04;;;;;;;1.97;1.77;;;;;;;;;;5024821;28;20482;-77
2023/07/02 04:43:32;;;;;;;0.80;0.80;;;;;;;;;;5027186;28;20559;-76
2023/07/02 04:46:02;;;;;;;0.80;0.70;;;;;;;;;;5040173;28;20437;-76
2023/07/02 04:48:29;;;;;;;1.67;1.53;;;;;;;;;;5027545;28;20546;-75
2023/07/02 04:50:56;;;;;;;1.93;1.83;;;;;;;;;;5029906;28;20437;-75
2023/07/02 04:53:23;;;;;;;0.70;0.70;;;;;;;;;;5045514;28;20459;-75
2023/07/02 04:55:50;;;;;;;0.80;0.70;;;;;;;;;;5039611;28;20501;-76
2023/07/02 04:58:17;;;;;;;1.73;1.27;;;;;;;;;;5046811;28;20547;-76
2023/07/02 05:00:44;;;;;;;1.27;1.17;;;;;;;;;;5046648;28;20475;-76
2023/07/02 05:03:14;;;;;;;1.33;1.23;;;;;;;;;;5048765;28;20539;-76
2023/07/02 05:05:40;;;;;;;0.70;0.70;;;;;;;;;;5039752;28;20980;-75
2023/07/02 05:08:07;;;;;;;1.47;1.37;;;;;;;;;;5040732;28;20546;-75
2023/07/02 05:10:33;;;;;;;0.70;0.70;;;;;;;;;;5047041;28;20483;-76
2023/07/02 05:13:00;;;;;;;0.80;0.80;;;;;;;;;;5040424;28;20502;-76
2023/07/02 05:15:27;;;;;;;0.70;0.70;;;;;;;;;;5039309;28;20508;-76
2023/07/02 05:17:53;;;;;;;0.70;0.70;;;;;;;;;;5030909;28;20571;-75
2023/07/02 05:20:22;;;;;;;0.80;0.70;;;;;;;;;;5042778;28;20440;-75
2023/07/02 05:22:49;;;;;;;1.07;0.97;;;;;;;;;;5030480;28;20478;-76
2023/07/02 05:25:16;;;;;;;0.80;0.80;;;;;;;;;;5043931;28;20504;-76
2023/07/02 05:27:42;;;;;;;1.77;1.67;;;;;;;;;;5036796;28;20436;-77
2023/07/02 05:30:10;;;;;;;0.70;0.70;;;;;;;;;;5028886;28;20949;-75
2023/07/02 05:32:39;;;;;;;1.83;1.43;;;;;;;;;;5040662;28;20990;-75
2023/07/02 05:35:06;;;;;;;0.70;0.70;;;;;;;;;;5026234;28;20442;-76
2023/07/02 05:37:36;;;;;;;1.33;1.23;;;;;;;;;;5055886;28;20879;-77
2023/07/02 05:40:03;;;;;;;0.80;0.70;;;;;;;;;;5040655;28;20507;-76
2023/07/02 05:42:30;;;;;;;1.37;1.30;;;;;;;;;;5041881;28;20531;-77
2023/07/02 05:44:57;;;;;;;2.90;2.70;;;;;;;;;;5030830;28;20544;-76
2023/07/02 05:47:23;;;;;;;1.40;1.30;;;;;;;;;;5040565;28;20435;-76
2023/07/02 05:49:51;;;;;;;0.80;0.80;;;;;;;;;;5040304;28;20469;-78
2023/07/02 05:52:19;;;;;;;1.63;1.53;;;;;;;;;;5027487;28;20553;-76
2023/07/02 05:54:48;;;;;;;0.70;0.70;;;;;;;;;;5045550;28;20881;-77
2023/07/02 05:57:15;;;;;;;0.70;0.67;;;;;;;;;;5050237;28;20476;-78
2023/07/02 05:59:41;;;;;;;1.00;0.90;;;;;;;;;;5048955;28;20947;-77
2023/07/02 06:02:10;;;;;;;1.27;1.17;;;;;;;;;;5047091;28;20519;-76
2023/07/02 06:04:39;;;;;;;0.80;0.80;;;;;;;;;;5048265;28;20458;-77
2023/07/02 06:07:08;;;;;;;1.27;1.17;;;;;;;;;;5053245;28;20984;-75
2023/07/02 06:09:37;;;;;;;1.73;1.63;;;;;;;;;;5046485;28;20439;-76
2023/07/02 06:12:05;;;;;;;1.10;1.00;;;;;;;;;;5044163;28;20944;-77
2023/07/02 06:14:32;;;;;;;1.83;1.73;;;;;;;;;;5051771;28;20450;-77
2023/07/02 06:17:00;;;;;;;0.70;0.60;;;;;;;;;;5047208;28;20488;-73
2023/07/02 06:19:27;;;;;;;0.70;0.70;;;;;;;;;;5042441;28;20453;-74
2023/07/02 06:21:55;;;;;;;3.33;3.23;;;;;;;;;;5042777;28;20467;-77
2023/07/02 06:24:21;;;;;;;0.80;0.80;;;;;;;;;;5030775;28;21268;-77
2023/07/02 06:26:48;;;;;;;2.40;2.20;;;;;;;;;;5048632;28;20944;-76
2023/07/02 06:29:17;;;;;;;0.80;0.70;;;;;;;;;;5045280;28;20544;-75
2023/07/02 06:31:43;;;;;;;0.80;0.70;;;;;;;;;;5051464;28;20441;-75
2023/07/02 06:34:10;;;;;;;0.70;0.60;;;;;;;;;;5024872;28;20541;-77
2023/07/02 06:36:37;;;;;;;0.70;0.70;;;;;;;;;;5042194;28;20476;-77
2023/07/02 06:39:03;;;;;;;0.70;0.67;;;;;;;;;;5042747;28;20933;-76
2023/07/02 06:41:30;;;;;;;3.00;2.77;;;;;;;;;;5037737;28;20464;-75
2023/07/02 06:43:57;;;;;;;0.70;0.70;;;;;;;;;;5051618;28;20460;-77
2023/07/02 06:46:25;;;;;;;0.80;0.80;;;;;;;;;;5049701;28;20466;-76
2023/07/02 06:48:53;;;;;;;0.87;0.87;;;;;;;;;;5043093;28;20468;-77
2023/07/02 06:51:21;;;;;;;1.03;1.03;;;;;;;;;;5041728;28;20474;-79
2023/07/02 06:53:48;;;;;;;0.70;0.70;;;;;;;;;;5043554;28;20464;-75
2023/07/02 06:56:15;;;;;;;0.80;0.70;;;;;;;;;;5046770;28;20463;-79
2023/07/02 06:58:42;;;;;;;1.07;0.97;;;;;;;;;;5044484;28;20530;-76
2023/07/02 07:01:09;;;;;;;0.70;0.60;;;;;;;;;;5034333;28;20456;-78
2023/07/02 07:03:37;;;;;;;0.80;0.70;;;;;;;;;;5040518;28;20953;-76
2023/07/02 07:06:04;;;;;;;0.70;0.60;;;;;;;;;;5047411;28;20446;-78
2023/07/02 07:08:31;;;;;;;1.20;1.10;;;;;;;;;;5046845;28;21184;-76
2023/07/02 07:10:59;;;;;;;1.17;1.07;;;;;;;;;;5043851;28;20439;-77
2023/07/02 07:13:25;;;;;;;0.87;0.87;;;;;;;;;;5040022;28;20444;-79
2023/07/02 07:15:52;;;;;;;1.27;1.17;;;;;;;;;;5043127;28;20475;-80
2023/07/02 07:18:19;;;;;;;0.80;0.80;;;;;;;;;;5045034;28;20501;-80
2023/07/02 07:20:48;;;;;;;0.80;0.80;;;;;;;;;;5024299;28;20536;-78
2023/07/02 07:23:16;;;;;;;0.77;0.77;;;;;;;;;;5039220;28;20477;-79
2023/07/02 07:25:46;;;;;;;0.70;0.70;;;;;;;;;;5027708;28;20441;-77
2023/07/02 07:28:15;;;;;;;3.47;1.47;;;;;;;;;;5046922;28;20964;-76
2023/07/02 07:30:42;;;;;;;1.67;1.57;;;;;;;;;;5045700;28;20447;-77
2023/07/02 07:33:09;;;;;;;1.90;0.97;;;;;;;;;;5031002;28;20480;-78
2023/07/02 07:35:36;;;;;;;2.07;1.97;;;;;;;;;;5042651;28;20453;-76
2023/07/02 07:38:04;;;;;;;1.53;1.43;;;;;;;;;;5037292;28;20473;-76
2023/07/02 07:40:32;;;;;;;1.20;1.03;;;;;;;;;;5049600;28;20796;-79
2023/07/02 07:42:59;;;;;;;0.90;0.90;;;;;;;;;;5031876;28;20530;-76
2023/07/02 07:45:26;;;;;;;0.70;0.70;;;;;;;;;;5027260;28;20502;-78
2023/07/02 07:47:53;;;;;;;0.70;0.60;;;;;;;;;;5028711;28;20434;-79
2023/07/02 07:50:19;;;;;;;1.93;1.23;;;;;;;;;;5043532;28;20920;-80
2023/07/02 07:52:47;;;;;;;1.03;1.00;;;;;;;;;;5026067;28;20542;-79
2023/07/02 07:55:16;;;;;;;0.70;0.70;;;;;;;;;;5041880;28;20510;-80
2023/07/02 07:57:42;;;;;;;1.47;1.37;;;;;;;;;;5039541;28;20510;-79
2023/07/02 08:00:10;;;;;;;0.70;0.70;;;;;;;;;;5033361;28;20445;-79
2023/07/02 08:02:45;;;;;;;0.93;0.80;;;;;;;;;;5047779;28;20497;-78
2023/07/02 08:05:13;;;;;;;1.53;1.43;;;;;;;;;;5039531;28;20440;-77
2023/07/02 08:07:40;;;;;;;9.73;1.83;;;;;;;;;;5042670;28;20467;-76
2023/07/02 08:10:09;;;;;;;1.20;1.10;;;;;;;;;;5041033;28;20531;-78
2023/07/02 08:12:38;;;;;;;1.70;1.60;;;;;;;;;;5043793;28;20503;-80
2023/07/02 08:15:05;;;;;;;0.97;0.97;;;;;;;;;;5039816;28;20443;-80
2023/07/02 08:17:32;;;;;;;0.90;0.90;;;;;;;;;;5031623;28;20477;-79
2023/07/02 08:20:00;;;;;;;4.10;1.53;;;;;;;;;;5025112;28;20451;-79
2023/07/02 08:22:27;;;;;;;0.90;0.90;;;;;;;;;;5041507;28;20995;-80
2023/07/02 08:24:54;;;;;;;1.53;1.00;;;;;;;;;;5027405;28;20434;-80
2023/07/02 08:27:21;;;;;;;1.43;1.33;;;;;;;;;;5042553;28;20418;-79
2023/07/02 08:29:49;;;;;;;1.60;1.50;;;;;;;;;;5047776;28;20508;-81
2023/07/02 08:32:17;;;;;;;1.17;0.80;;;;;;;;;;5023821;28;20427;-80
2023/07/02 08:34:44;;;;;;;8.03;1.83;;;;;;;;;;5028835;28;20481;-78
2023/07/02 08:37:11;;;;;;;1.07;0.90;;;;;;;;;;5042951;28;20465;-80
2023/07/02 08:39:39;;;;;;;0.70;0.60;;;;;;;;;;5021932;28;20821;-76
2023/07/02 08:42:06;;;;;;;5.80;2.13;;;;;;;;;;5046701;28;20446;-81
2023/07/02 08:44:35;;;;;;;0.80;0.73;;;;;;;;;;5030961;28;20471;-77
2023/07/02 08:47:05;;;;;;;1.40;1.30;;;;;;;;;;5044790;28;20403;-79
2023/07/02 08:49:33;;;;;;;0.80;0.70;;;;;;;;;;5048864;28;20518;-81
2023/07/02 08:52:00;;;;;;;3.70;2.27;;;;;;;;;;5026592;28;20480;-80
2023/07/02 08:54:27;;;;;;;0.73;0.70;;;;;;;;;;5037476;28;20453;-80
2023/07/02 08:56:54;;;;;;;3.33;1.20;;;;;;;;;;5045444;28;20482;-81
2023/07/02 08:59:22;;;;;;;2.37;1.27;;;;;;;;;;5030231;28;20472;-80
2023/07/02 09:01:50;;;;;;;0.70;0.70;;;;;;;;;;5046209;28;20467;-81
2023/07/02 09:04:19;;;;;;;1.30;0.97;;;;;;;;;;5047321;28;20419;-80
2023/07/02 09:06:49;;;;;;;4.70;1.83;;;;;;;;;;5039767;28;20422;-80
2023/07/02 09:09:16;;;;;;;0.80;0.70;;;;;;;;;;5025769;28;20459;-79
2023/07/02 09:11:48;;;;;;;1.10;0.90;;;;;;;;;;5045471;28;20983;-81
2023/07/02 09:14:27;;;;;;;1.37;1.27;;;;;;;;;;5043338;28;20461;-81
2023/07/02 09:17:04;;;;;;;0.80;0.70;;;;;;;;;;5047425;28;20450;-81
2023/07/02 09:19:32;;;;;;;1.13;1.03;;;;;;;;;;5029979;28;20451;-77
2023/07/02 09:22:02;;;;;;;1.53;1.43;;;;;;;;;;5032088;28;20575;-79
2023/07/02 09:24:30;;;;;;;0.80;0.80;;;;;;;;;;5039354;28;20544;-80
2023/07/02 09:26:57;;;;;;;1.47;1.37;;;;;;;;;;5045379;28;20455;-79
2023/07/02 09:29:25;;;;;;;1.50;1.40;;;;;;;;;;5046121;28;20539;-78
2023/07/02 09:31:51;;;;;;;1.17;1.10;;;;;;;;;;5045038;28;20436;-79
2023/07/02 09:34:36;;;;;;;1.20;1.10;;;;;;;;;;5047216;28;20431;-78
2023/07/02 09:37:07;;;;;;;0.80;0.80;;;;;;;;;;5051955;28;20486;-82
2023/07/02 09:39:35;;;;;;;0.97;0.90;;;;;;;;;;5050448;28;20505;-81
2023/07/02 09:42:04;;;;;;;1.60;1.50;;;;;;;;;;5048847;28;20897;-82
2023/07/02 09:44:32;;;;;;;0.70;0.70;;;;;;;;;;5048341;28;20465;-81
2023/07/02 09:47:01;;;;;;;1.93;1.57;;;;;;;;;;5051799;28;20523;-80
2023/07/02 09:49:31;;;;;;;0.70;0.60;;;;;;;;;;5046255;28;20436;-80
2023/07/02 09:52:03;;;;;;;0.90;0.90;;;;;;;;;;5051103;28;20463;-81
2023/07/02 09:54:30;;;;;;;2.10;1.83;;;;;;;;;;5041518;28;20494;-80
2023/07/02 09:56:57;;;;;;;0.80;0.70;;;;;;;;;;5058489;28;20842;-79
2023/07/02 09:59:24;;;;;;;2.60;2.10;;;;;;;;;;5046599;28;20447;-78
2023/07/02 10:01:50;;;;;;;3.57;1.33;;;;;;;;;;5039908;28;20435;-80
2023/07/02 10:04:18;;;;;;;1.10;1.00;;;;;;;;;;5041228;28;20444;-79
2023/07/02 10:06:50;;;;;;;0.90;0.90;;;;;;;;;;5047089;28;20463;-77
2023/07/02 10:09:18;;;;;;;1.10;1.00;;;;;;;;;;5040363;28;20524;-80
2023/07/02 10:11:45;;;;;;;1.17;1.10;;;;;;;;;;5048944;28;20447;-78
2023/07/02 10:14:12;;;;;;;1.20;0.97;;;;;;;;;;5030178;28;20445;-77
2023/07/02 10:16:51;;;;;;;1.43;0.90;;;;;;;;;;5045462;28;20448;-80
2023/07/02 10:19:18;;;;;;;2.03;1.20;;;;;;;;;;5028194;28;20424;-81
2023/07/02 10:21:50;;;;;;;0.80;0.80;;;;;;;;;;5044914;28;20543;-78
2023/07/02 10:24:18;;;;;;;2.60;2.40;;;;;;;;;;5028299;28;21016;-80
2023/07/02 10:26:52;;;;;;;2.70;1.20;;;;;;;;;;5052081;28;20524;-79
2023/07/02 10:29:19;;;;;;;0.80;0.70;;;;;;;;;;5040494;28;20452;-79
2023/07/02 10:31:48;;;;;;;1.17;0.97;;;;;;;;;;5045478;28;20449;-81
2023/07/02 10:34:27;;;;;;;1.00;0.90;;;;;;;;;;5055885;28;20758;-80
2023/07/02 10:36:55;;;;;;;1.63;1.10;;;;;;;;;;5061714;28;20454;-80
2023/07/02 10:39:23;;;;;;;0.77;0.70;;;;;;;;;;5043008;28;20480;-79
2023/07/02 10:41:50;;;;;;;0.80;0.80;;;;;;;;;;5046642;28;20527;-79
2023/07/02 10:44:17;;;;;;;2.90;0.90;;;;;;;;;;5039918;28;20439;-80
2023/07/02 10:46:44;;;;;;;1.13;1.03;;;;;;;;;;5062852;28;20456;-80
2023/07/02 10:49:11;;;;;;;1.37;1.27;;;;;;;;;;5047443;28;20450;-80
2023/07/02 10:51:38;;;;;;;1.10;0.83;;;;;;;;;;5044238;28;20526;-81
2023/07/02 10:54:05;;;;;;;1.17;1.07;;;;;;;;;;5024965;28;20812;-81
2023/07/02 10:56:34;;;;;;;0.80;0.70;;;;;;;;;;5043284;28;20449;-79
2023/07/02 10:59:03;;;;;;;1.03;1.00;;;;;;;;;;5040555;28;20507;-81
2023/07/02 11:01:31;;;;;;;2.90;1.33;;;;;;;;;;5030926;28;20452;-79
2023/07/02 11:03:59;;;;;;;2.83;2.63;;;;;;;;;;5045496;28;20475;-79
2023/07/02 11:06:28;;;;;;;1.20;1.10;;;;;;;;;;5044823;28;20452;-77
2023/07/02 11:08:55;;;;;;;0.80;0.80;;;;;;;;;;5044570;28;20460;-81
2023/07/02 11:11:22;;;;;;;0.80;0.70;;;;;;;;;;5028002;28;20538;-80
2023/07/02 11:13:51;;;;;;;0.70;0.70;;;;;;;;;;5043563;28;20448;-82
2023/07/02 11:16:19;;;;;;;1.93;1.70;;;;;;;;;;5041723;28;20776;-81
2023/07/02 11:18:45;;;;;;;1.10;1.00;;;;;;;;;;5043476;28;20982;-79
2023/07/02 11:21:12;;;;;;;0.80;0.70;;;;;;;;;;5038603;28;20415;-80
2023/07/02 11:23:38;;;;;;;0.80;0.80;;;;;;;;;;5045708;28;20504;-79
2023/07/02 11:26:05;;;;;;;1.20;1.10;;;;;;;;;;5038980;28;20451;-79
2023/07/02 11:28:34;;;;;;;1.20;1.10;;;;;;;;;;5029609;28;20957;-80
2023/07/02 11:31:07;;;;;;;1.10;1.00;;;;;;;;;;5047397;28;20455;-79
2023/07/02 11:33:34;;;;;;;1.30;1.20;;;;;;;;;;5044995;28;20480;-82
2023/07/02 11:36:01;;;;;;;8.30;1.03;;;;;;;;;;5048244;28;20480;-79
2023/07/02 11:38:28;;;;;;;1.00;0.80;;;;;;;;;;5037934;28;20567;-80
2023/07/02 11:40:54;;;;;;;1.13;1.03;;;;;;;;;;5044355;28;20481;-80
2023/07/02 11:43:21;;;;;;;3.63;1.73;;;;;;;;;;5029949;28;20559;-79
2023/07/02 11:45:47;;;;;;;0.70;0.60;;;;;;;;;;5028464;28;20449;-79
2023/07/02 11:48:16;;;;;;;1.10;1.00;;;;;;;;;;5024593;28;20452;-80
2023/07/02 11:50:43;;;;;;;0.80;0.70;;;;;;;;;;5040748;28;20459;-78
2023/07/02 11:53:10;;;;;;;0.90;0.80;;;;;;;;;;5049245;28;20552;-79
2023/07/02 11:55:37;;;;;;;3.53;2.50;;;;;;;;;;5044586;28;20480;-79
2023/07/02 11:58:04;;;;;;;2.20;2.00;;;;;;;;;;5041807;28;20579;-81
2023/07/02 12:00:31;;;;;;;2.67;2.50;;;;;;;;;;5046253;28;20531;-80
2023/07/02 12:03:00;;;;;;;0.80;0.67;;;;;;;;;;5046655;28;20462;-81
2023/07/02 12:05:29;;;;;;;1.03;0.93;;;;;;;;;;5027064;28;20820;-77
2023/07/02 12:07:56;;;;;;;1.10;1.00;;;;;;;;;;5045878;28;20483;-78
2023/07/02 12:10:24;;;;;;;3.80;1.30;;;;;;;;;;5042584;28;20513;-77
2023/07/02 12:12:51;;;;;;;0.80;0.80;;;;;;;;;;5044171;28;20456;-78
2023/07/02 12:15:18;;;;;;;1.20;1.10;;;;;;;;;;5040125;28;20463;-77
2023/07/02 12:17:46;;;;;;;2.50;2.00;;;;;;;;;;5044007;28;20479;-80
2023/07/02 12:20:13;;;;;;;1.20;1.10;;;;;;;;;;5047029;28;20468;-76
2023/07/02 12:22:41;;;;;;;6.57;1.37;;;;;;;;;;5032096;28;20571;-81
2023/07/02 12:25:08;;;;;;;0.70;0.60;;;;;;;;;;5041389;28;20480;-80
2023/07/02 12:27:36;;;;;;;2.13;0.80;;;;;;;;;;5024852;28;20483;-81
2023/07/02 12:30:04;;;;;;;0.80;0.70;;;;;;;;;;5029668;28;20472;-81
2023/07/02 12:32:30;;;;;;;9.00;3.00;;;;;;;;;;5027276;28;20631;-77
2023/07/02 12:34:57;;;;;;;1.93;1.80;;;;;;;;;;5030950;28;20456;-78
2023/07/02 12:37:24;;;;;;;2.53;2.37;;;;;;;;;;5042575;28;20463;-78
2023/07/02 12:39:52;;;;;;;0.80;0.70;;;;;;;;;;5041680;28;20494;-79
2023/07/02 12:42:20;;;;;;;2.03;1.83;;;;;;;;;;5049431;28;20622;-80
2023/07/02 12:44:47;;;;;;;1.10;1.00;;;;;;;;;;5038825;28;20445;-79
2023/07/02 12:47:14;;;;;;;0.90;0.70;;;;;;;;;;5046129;28;20543;-76
2023/07/02 12:49:40;;;;;;;1.23;1.13;;;;;;;;;;5044037;28;20514;-80
2023/07/02 12:52:07;;;;;;;1.73;1.43;;;;;;;;;;5044988;28;20578;-79
2023/07/02 12:54:34;;;;;;;0.70;0.67;;;;;;;;;;5046401;28;20447;-80
2023/07/02 12:57:03;;;;;;;0.70;0.60;;;;;;;;;;5041036;28;20449;-80
2023/07/02 12:59:30;;;;;;;0.80;0.70;;;;;;;;;;5043224;28;20688;-81
2023/07/02 13:01:57;;;;;;;1.70;1.50;;;;;;;;;;5040212;28;20437;-75
2023/07/02 13:04:24;;;;;;;2.90;2.60;;;;;;;;;;5039448;28;20455;-78
2023/07/02 13:06:51;;;;;;;1.10;1.00;;;;;;;;;;5047161;28;20460;-78
2023/07/02 13:09:17;;;;;;;0.70;0.60;;;;;;;;;;5042575;28;20460;-78
2023/07/02 13:11:44;;;;;;;1.53;0.77;;;;;;;;;;5024482;28;20830;-79
2023/07/02 13:14:12;;;;;;;1.50;1.40;;;;;;;;;;5043181;28;20435;-80
2023/07/02 13:16:39;;;;;;;1.67;0.90;;;;;;;;;;5046930;28;20445;-79
2023/07/02 13:19:05;;;;;;;0.70;0.60;;;;;;;;;;5042224;28;20837;-78
2023/07/02 13:21:32;;;;;;;0.97;0.87;;;;;;;;;;5042221;28;20448;-80
2023/07/02 13:23:59;;;;;;;1.13;1.03;;;;;;;;;;5047721;28;20845;-80
2023/07/02 13:26:26;;;;;;;0.77;0.70;;;;;;;;;;5045717;28;20445;-80
2023/07/02 13:28:53;;;;;;;1.63;1.37;;;;;;;;;;5027151;28;20457;-80
2023/07/02 13:31:20;;;;;;;1.77;1.67;;;;;;;;;;5055212;28;20503;-81
2023/07/02 13:33:49;;;;;;;0.80;0.70;;;;;;;;;;5047221;28;20433;-76
2023/07/02 13:36:16;;;;;;;0.70;0.60;;;;;;;;;;5039950;28;20448;-80
2023/07/02 13:38:42;;;;;;;1.53;0.97;;;;;;;;;;5048136;28;20483;-81
2023/07/02 13:41:09;;;;;;;1.00;0.90;;;;;;;;;;5043985;28;20438;-78
2023/07/02 13:43:36;;;;;;;2.20;2.10;;;;;;;;;;5037760;28;21023;-79
2023/07/02 13:46:02;;;;;;;1.27;1.17;;;;;;;;;;5038435;28;20442;-80
2023/07/02 13:48:30;;;;;;;1.00;0.90;;;;;;;;;;5035106;28;20454;-80
2023/07/02 13:50:57;;;;;;;1.17;0.93;;;;;;;;;;5045862;28;20525;-79
2023/07/02 13:53:24;;;;;;;0.70;0.50;;;;;;;;;;5037477;28;20456;-79
2023/07/02 13:55:51;;;;;;;0.70;0.50;;;;;;;;;;5043100;28;20989;-78
2023/07/02 13:58:18;;;;;;;1.27;1.17;;;;;;;;;;5024095;28;20508;-80
2023/07/02 14:00:57;;;;;;;0.70;0.60;;;;;;;;;;5045694;28;20839;-79
2023/07/02 14:03:24;;;;;;;0.70;0.60;;;;;;;;;;5023955;28;20509;-77
2023/07/02 14:05:51;;;;;;;0.80;0.80;;;;;;;;;;5038578;28;20503;-79
2023/07/02 14:08:18;;;;;;;2.80;2.60;;;;;;;;;;5022523;28;20463;-78
2023/07/02 14:10:45;;;;;;;1.47;1.23;;;;;;;;;;5039795;28;20436;-78
2023/07/02 14:13:14;;;;;;;1.40;1.00;;;;;;;;;;5044655;28;20448;-76
2023/07/02 14:15:40;;;;;;;1.50;1.40;;;;;;;;;;5040229;28;20436;-78
2023/07/02 14:18:08;;;;;;;0.97;0.80;;;;;;;;;;5051487;28;20444;-79
2023/07/02 14:20:35;;;;;;;2.10;2.00;;;;;;;;;;5044650;28;20467;-77
2023/07/02 14:23:02;;;;;;;1.00;0.90;;;;;;;;;;5042181;28;20499;-78
2023/07/02 14:25:29;;;;;;;2.27;1.73;;;;;;;;;;5021792;28;20432;-80
2023/07/02 14:28:07;;;;;;;1.43;1.33;;;;;;;;;;5038538;28;20467;-78
2023/07/02 14:30:34;;;;;;;1.00;0.90;;;;;;;;;;5046961;28;20433;-78
2023/07/02 14:33:04;;;;;;;0.70;0.60;;;;;;;;;;5044166;28;20432;-78
2023/07/02 14:35:32;;;;;;;7.67;5.93;;;;;;;;;;5043869;28;21237;-74
2023/07/02 14:37:59;;;;;;;0.90;0.90;;;;;;;;;;5047578;28;20472;-77
2023/07/02 14:40:26;;;;;;;0.83;0.83;;;;;;;;;;5032802;28;20506;-77
2023/07/02 14:42:53;;;;;;;0.70;0.70;;;;;;;;;;5046977;28;20452;-77
2023/07/02 14:45:20;;;;;;;1.83;1.47;;;;;;;;;;5044639;28;20966;-78
2023/07/02 14:47:48;;;;;;;2.50;1.13;;;;;;;;;;5049341;28;20447;-77